createdAt,value
2018-03-07T00:00:53.728Z,99.82
2018-03-07T00:01:53.709Z,99.16
2018-03-07T00:02:53.689Z,99.06
2018-03-07T00:03:53.665Z,99.99
2018-03-07T00:04:53.646Z,99.63
2018-03-07T00:05:53.626Z,99.91
2018-03-07T00:06:53.607Z,99.82
2018-03-07T00:07:53.589Z,99.63
2018-03-07T00:08:53.561Z,99.44
2018-03-07T00:09:53.540Z,99.82
2018-03-07T00:10:53.524Z,99.99
2018-03-07T00:11:53.497Z,99.99
2018-03-07T00:12:53.478Z,99.54
2018-03-07T00:13:53.456Z,99.54
2018-03-07T00:14:53.455Z,99.82
2018-03-07T00:15:53.416Z,99.63
2018-03-07T00:16:53.392Z,99.91
2018-03-07T00:17:53.371Z,99.44
2018-03-07T00:18:53.350Z,99.82
2018-03-07T00:19:53.331Z,99.44
2018-03-07T00:20:53.310Z,99.82
2018-03-07T00:21:53.288Z,99.99
2018-03-07T00:22:53.274Z,99.99
2018-03-07T00:23:53.254Z,99.99
2018-03-07T00:24:53.227Z,99.54
2018-03-07T00:25:53.214Z,99.73
2018-03-07T00:26:53.186Z,99.99
2018-03-07T00:27:53.165Z,99.54
2018-03-07T00:28:53.144Z,99.99
2018-03-07T00:29:53.126Z,99.99
2018-03-07T00:30:53.102Z,99.99
2018-03-07T00:31:53.080Z,99.99
2018-03-07T00:32:53.067Z,99.91
2018-03-07T00:33:53.045Z,99.99
2018-03-07T00:34:53.026Z,99.99
2018-03-07T00:35:52.996Z,99.99
2018-03-07T00:36:52.977Z,99.99
2018-03-07T00:37:52.954Z,99.99
2018-03-07T00:38:52.937Z,99.99
2018-03-07T00:39:52.913Z,99.99
2018-03-07T00:40:52.899Z,99.99
2018-03-07T00:41:52.877Z,99.99
2018-03-07T00:42:52.854Z,99.91
2018-03-07T00:43:52.831Z,99.99
2018-03-07T00:44:52.810Z,99.99
2018-03-07T00:45:52.789Z,99.99
2018-03-07T00:46:52.769Z,99.99
2018-03-07T00:47:52.748Z,99.99
2018-03-07T00:48:52.731Z,99.99
2018-03-07T00:49:52.706Z,99.99
2018-03-07T00:50:52.687Z,99.82
2018-03-07T00:51:52.663Z,99.99
2018-03-07T00:52:52.650Z,99.99
2018-03-07T00:53:52.629Z,99.99
2018-03-07T00:54:52.612Z,99.99
2018-03-07T00:55:52.584Z,99.99
2018-03-07T00:56:52.561Z,99.99
2018-03-07T00:57:52.544Z,99.99
2018-03-07T00:58:52.526Z,99.99
2018-03-07T00:59:52.527Z,99.99
2018-03-07T01:00:52.477Z,99.99
2018-03-07T01:01:52.457Z,99.99
2018-03-07T01:02:52.435Z,99.99
2018-03-07T01:03:52.421Z,99.99
2018-03-07T01:04:52.399Z,99.99
2018-03-07T01:05:52.375Z,99.99
2018-03-07T01:06:52.356Z,99.99
2018-03-07T01:07:52.335Z,99.99
2018-03-07T01:08:52.312Z,99.99
2018-03-07T01:09:52.296Z,99.99
2018-03-07T01:10:52.273Z,99.99
2018-03-07T01:11:52.252Z,99.99
2018-03-07T01:12:52.236Z,99.99
2018-03-07T01:13:52.210Z,99.82
2018-03-07T01:14:52.193Z,99.99
2018-03-07T01:15:52.170Z,99.99
2018-03-07T01:16:52.154Z,99.99
2018-03-07T01:17:52.126Z,99.73
2018-03-07T01:18:52.112Z,98.78
2018-03-07T01:19:52.087Z,98.11
2018-03-07T01:20:52.066Z,97.92
2018-03-07T01:21:52.046Z,99.01
2018-03-07T01:22:52.027Z,99.49
2018-03-07T01:23:52.004Z,99.68
2018-03-07T01:24:51.991Z,99.99
2018-03-07T01:25:51.972Z,99.99
2018-03-07T01:26:51.947Z,99.99
2018-03-07T01:27:51.921Z,99.99
2018-03-07T01:28:51.900Z,99.99
2018-03-07T01:29:51.879Z,99.99
2018-03-07T01:30:51.861Z,99.99
2018-03-07T01:31:51.845Z,99.99
2018-03-07T01:32:51.820Z,99.99
2018-03-07T01:33:51.797Z,99.99
2018-03-07T01:34:51.781Z,99.99
2018-03-07T01:35:51.754Z,99.99
2018-03-07T01:36:51.736Z,99.99
2018-03-07T01:37:51.716Z,99.99
2018-03-07T01:38:51.699Z,99.99
2018-03-07T01:39:51.676Z,99.99
2018-03-07T01:40:51.656Z,99.99
2018-03-07T01:41:51.632Z,99.99
2018-03-07T01:42:51.614Z,99.99
2018-03-07T01:43:51.592Z,99.99
2018-03-07T01:44:51.580Z,99.96
2018-03-07T01:45:51.553Z,99.99
2018-03-07T01:46:51.541Z,99.99
2018-03-07T01:47:51.512Z,99.99
2018-03-07T01:48:51.494Z,99.99
2018-03-07T01:49:51.471Z,99.99
2018-03-07T01:50:51.450Z,99.99
2018-03-07T01:51:51.436Z,99.99
2018-03-07T01:52:51.412Z,99.99
2018-03-07T01:53:51.411Z,99.99
2018-03-07T01:54:51.367Z,99.99
2018-03-07T01:55:51.348Z,99.99
2018-03-07T01:56:51.326Z,99.99
2018-03-07T01:57:51.306Z,99.99
2018-03-07T01:58:51.292Z,99.99
2018-03-07T01:59:51.266Z,99.99
2018-03-07T02:00:51.249Z,99.99
2018-03-07T02:01:51.226Z,99.99
2018-03-07T02:02:51.204Z,99.99
2018-03-07T02:03:51.188Z,99.99
2018-03-07T02:04:51.166Z,99.99
2018-03-07T02:05:51.140Z,99.99
2018-03-07T02:06:51.122Z,99.99
2018-03-07T02:07:51.102Z,99.58
2018-03-07T02:08:51.079Z,99.99
2018-03-07T02:09:51.059Z,99.99
2018-03-07T02:10:51.046Z,99.99
2018-03-07T02:11:51.017Z,99.99
2018-03-07T02:12:50.997Z,99.99
2018-03-07T02:13:50.975Z,99.99
2018-03-07T02:14:50.956Z,99.99
2018-03-07T02:15:50.937Z,99.99
2018-03-07T02:16:50.916Z,99.99
2018-03-07T02:17:50.895Z,99.99
2018-03-07T02:18:50.875Z,99.99
2018-03-07T02:19:50.853Z,99.99
2018-03-07T02:20:50.832Z,99.99
2018-03-07T02:21:50.815Z,99.99
2018-03-07T02:22:50.793Z,99.99
2018-03-07T02:23:50.770Z,99.99
2018-03-07T02:24:50.755Z,99.99
2018-03-07T02:25:50.729Z,99.99
2018-03-07T02:26:50.711Z,99.99
2018-03-07T02:27:50.690Z,99.99
2018-03-07T02:28:50.672Z,99.99
2018-03-07T02:29:50.650Z,99.99
2018-03-07T02:30:50.627Z,99.99
2018-03-07T02:31:50.606Z,99.99
2018-03-07T02:32:50.586Z,99.99
2018-03-07T02:33:50.573Z,99.99
2018-03-07T02:34:50.548Z,99.99
2018-03-07T02:35:50.525Z,99.99
2018-03-07T02:36:50.505Z,99.99
2018-03-07T02:37:50.483Z,99.99
2018-03-07T02:38:50.462Z,99.99
2018-03-07T02:39:50.448Z,99.99
2018-03-07T02:40:50.421Z,99.99
2018-03-07T02:41:50.405Z,99.99
2018-03-07T02:42:50.382Z,99.99
2018-03-07T02:43:50.386Z,99.99
2018-03-07T02:44:50.348Z,99.99
2018-03-07T02:45:50.317Z,99.99
2018-03-07T02:46:50.299Z,99.99
2018-03-07T02:47:50.277Z,99.99
2018-03-07T02:48:50.264Z,99.99
2018-03-07T02:49:50.238Z,99.99
2018-03-07T02:50:50.216Z,99.99
2018-03-07T02:51:50.196Z,99.99
2018-03-07T02:52:50.186Z,99.99
2018-03-07T02:53:50.156Z,99.99
2018-03-07T02:54:50.139Z,99.99
2018-03-07T02:55:50.113Z,99.99
2018-03-07T02:56:50.092Z,99.99
2018-03-07T02:57:50.072Z,99.99
2018-03-07T02:58:50.050Z,99.99
2018-03-07T02:59:50.034Z,99.99
2018-03-07T03:00:50.011Z,99.99
2018-03-07T03:01:49.993Z,99.99
2018-03-07T03:02:49.967Z,99.99
2018-03-07T03:03:49.956Z,99.99
2018-03-07T03:04:49.927Z,99.99
2018-03-07T03:05:49.906Z,99.99
2018-03-07T03:06:49.889Z,99.99
2018-03-07T03:07:49.864Z,99.99
2018-03-07T03:08:49.843Z,99.99
2018-03-07T03:09:49.822Z,99.99
2018-03-07T03:10:49.803Z,99.99
2018-03-07T03:11:49.787Z,99.99
2018-03-07T03:12:49.760Z,99.99
2018-03-07T03:13:49.742Z,99.99
2018-03-07T03:14:49.718Z,99.99
2018-03-07T03:15:49.702Z,99.99
2018-03-07T03:16:49.677Z,99.99
2018-03-07T03:17:49.654Z,99.99
2018-03-07T03:18:49.635Z,99.99
2018-03-07T03:19:49.615Z,99.99
2018-03-07T03:20:49.596Z,99.99
2018-03-07T03:21:49.572Z,99.99
2018-03-07T03:22:49.559Z,99.99
2018-03-07T03:23:49.533Z,99.99
2018-03-07T03:24:49.512Z,99.99
2018-03-07T03:25:49.488Z,99.99
2018-03-07T03:26:49.470Z,99.99
2018-03-07T03:27:49.450Z,99.99
2018-03-07T03:28:49.429Z,99.99
2018-03-07T03:29:49.409Z,99.99
2018-03-07T03:30:49.382Z,99.99
2018-03-07T03:31:49.366Z,99.99
2018-03-07T03:32:49.342Z,99.99
2018-03-07T03:33:49.321Z,99.99
2018-03-07T03:34:49.310Z,99.99
2018-03-07T03:35:49.280Z,99.99
2018-03-07T03:36:49.259Z,99.99
2018-03-07T03:37:49.236Z,99.99
2018-03-07T03:38:49.218Z,99.99
2018-03-07T03:39:49.199Z,99.99
2018-03-07T03:40:49.175Z,99.99
2018-03-07T03:41:49.153Z,99.99
2018-03-07T03:42:49.136Z,99.99
2018-03-07T03:43:49.110Z,99.99
2018-03-07T03:44:49.092Z,99.99
2018-03-07T03:45:49.069Z,99.99
2018-03-07T03:46:49.052Z,99.99
2018-03-07T03:47:49.031Z,99.99
2018-03-07T03:48:49.008Z,99.99
2018-03-07T03:49:48.988Z,99.99
2018-03-07T03:50:48.966Z,99.99
2018-03-07T03:51:48.951Z,99.99
2018-03-07T03:52:48.920Z,99.99
2018-03-07T03:53:48.903Z,99.99
2018-03-07T03:54:48.886Z,99.99
2018-03-07T03:55:48.862Z,99.99
2018-03-07T03:56:48.839Z,99.99
2018-03-07T03:57:48.818Z,99.99
2018-03-07T03:58:48.796Z,99.99
2018-03-07T03:59:48.784Z,99.99
2018-03-07T04:00:48.755Z,99.99
2018-03-07T04:01:48.732Z,99.99
2018-03-07T04:02:48.712Z,99.99
2018-03-07T04:03:48.688Z,99.99
2018-03-07T04:04:48.675Z,99.99
2018-03-07T04:05:48.649Z,99.99
2018-03-07T04:06:48.628Z,99.99
2018-03-07T04:07:48.606Z,99.99
2018-03-07T04:08:48.594Z,99.99
2018-03-07T04:09:48.563Z,99.99
2018-03-07T04:10:48.546Z,99.99
2018-03-07T04:11:48.523Z,99.99
2018-03-07T04:12:48.498Z,99.99
2018-03-07T04:13:48.483Z,99.99
2018-03-07T04:14:48.458Z,99.99
2018-03-07T04:15:48.434Z,99.99
2018-03-07T04:16:48.413Z,99.99
2018-03-07T04:17:48.394Z,99.99
2018-03-07T04:18:48.376Z,99.99
2018-03-07T04:19:48.356Z,99.99
2018-03-07T04:20:48.330Z,99.99
2018-03-07T04:21:48.309Z,99.86
2018-03-07T04:22:48.290Z,99.99
2018-03-07T04:23:48.266Z,99.99
2018-03-07T04:24:48.243Z,99.99
2018-03-07T04:25:48.227Z,99.99
2018-03-07T04:26:48.200Z,99.99
2018-03-07T04:27:48.181Z,99.99
2018-03-07T04:28:48.162Z,99.99
2018-03-07T04:29:48.142Z,99.99
2018-03-07T04:30:48.119Z,99.99
2018-03-07T04:31:48.099Z,99.99
2018-03-07T04:32:48.076Z,99.99
2018-03-07T04:33:48.056Z,99.99
2018-03-07T04:34:48.037Z,99.99
2018-03-07T04:35:48.016Z,99.99
2018-03-07T04:36:47.996Z,99.99
2018-03-07T04:37:47.970Z,99.99
2018-03-07T04:38:47.950Z,99.99
2018-03-07T04:39:47.928Z,99.99
2018-03-07T04:40:47.907Z,99.99
2018-03-07T04:41:47.886Z,99.99
2018-03-07T04:42:47.866Z,99.99
2018-03-07T04:43:47.842Z,99.99
2018-03-07T04:44:47.823Z,99.99
2018-03-07T04:45:47.802Z,99.99
2018-03-07T04:46:47.780Z,99.99
2018-03-07T04:47:47.757Z,99.99
2018-03-07T04:48:47.736Z,99.99
2018-03-07T04:49:47.717Z,99.99
2018-03-07T04:50:47.696Z,99.99
2018-03-07T04:51:47.676Z,99.99
2018-03-07T04:52:47.650Z,99.99
2018-03-07T04:53:47.637Z,99.99
2018-03-07T04:54:47.618Z,99.99
2018-03-07T04:55:47.586Z,99.99
2018-03-07T04:56:47.565Z,99.99
2018-03-07T04:57:47.547Z,99.99
2018-03-07T04:58:47.527Z,99.99
2018-03-07T04:59:47.499Z,99.99
2018-03-07T05:00:47.481Z,99.99
2018-03-07T05:01:47.459Z,99.99
2018-03-07T05:02:47.504Z,99.99
2018-03-07T05:03:47.416Z,99.99
2018-03-07T05:04:47.397Z,99.99
2018-03-07T05:05:47.375Z,99.99
2018-03-07T05:06:47.356Z,99.99
2018-03-07T05:07:47.335Z,99.99
2018-03-07T05:08:47.311Z,99.99
2018-03-07T05:09:47.295Z,99.99
2018-03-07T05:10:47.265Z,99.99
2018-03-07T05:11:47.247Z,99.99
2018-03-07T05:12:47.223Z,99.99
2018-03-07T05:13:47.205Z,99.99
2018-03-07T05:14:47.186Z,99.99
2018-03-07T05:15:47.162Z,99.99
2018-03-07T05:16:47.143Z,99.99
2018-03-07T05:17:47.122Z,99.99
2018-03-07T05:18:47.132Z,99.99
2018-03-07T05:19:47.073Z,99.99
2018-03-07T05:20:47.057Z,99.99
2018-03-07T05:21:47.034Z,99.99
2018-03-07T05:22:47.011Z,99.99
2018-03-07T05:23:46.991Z,99.99
2018-03-07T05:24:46.978Z,99.99
2018-03-07T05:25:46.951Z,99.99
2018-03-07T05:26:46.926Z,99.99
2018-03-07T05:27:46.905Z,99.99
2018-03-07T05:28:46.884Z,99.99
2018-03-07T05:29:46.862Z,99.99
2018-03-07T05:30:46.852Z,99.99
2018-03-07T05:31:46.822Z,99.99
2018-03-07T05:32:46.801Z,99.99
2018-03-07T05:33:46.777Z,99.99
2018-03-07T05:34:46.756Z,99.99
2018-03-07T05:35:46.739Z,99.99
2018-03-07T05:36:46.716Z,99.99
2018-03-07T05:37:46.695Z,99.99
2018-03-07T05:38:46.670Z,99.99
2018-03-07T05:39:46.649Z,99.99
2018-03-07T05:40:46.628Z,99.99
2018-03-07T05:41:46.606Z,99.99
2018-03-07T05:42:46.595Z,99.99
2018-03-07T05:43:46.568Z,99.99
2018-03-07T05:44:46.545Z,99.99
2018-03-07T05:45:46.521Z,99.99
2018-03-07T05:46:46.499Z,99.99
2018-03-07T05:47:46.488Z,99.99
2018-03-07T05:48:46.456Z,99.99
2018-03-07T05:49:46.437Z,99.99
2018-03-07T05:50:46.419Z,99.99
2018-03-07T05:51:46.398Z,99.99
2018-03-07T05:52:46.373Z,99.99
2018-03-07T05:53:46.356Z,99.99
2018-03-07T05:54:46.333Z,99.99
2018-03-07T05:55:46.308Z,99.99
2018-03-07T05:56:46.288Z,99.99
2018-03-07T05:57:46.268Z,99.99
2018-03-07T05:58:46.244Z,99.99
2018-03-07T05:59:46.221Z,99.99
2018-03-07T06:00:46.203Z,99.99
2018-03-07T06:01:46.179Z,99.99
2018-03-07T06:02:46.158Z,99.99
2018-03-07T06:03:46.137Z,99.99
2018-03-07T06:04:46.119Z,99.99
2018-03-07T06:05:46.097Z,99.99
2018-03-07T06:06:46.073Z,99.99
2018-03-07T06:07:46.059Z,99.99
2018-03-07T06:08:46.031Z,99.99
2018-03-07T06:09:46.011Z,99.99
2018-03-07T06:10:45.987Z,99.99
2018-03-07T06:11:45.970Z,99.99
2018-03-07T06:12:45.947Z,99.99
2018-03-07T06:13:45.927Z,99.99
2018-03-07T06:14:45.904Z,99.99
2018-03-07T06:15:45.893Z,99.99
2018-03-07T06:16:45.863Z,99.99
2018-03-07T06:17:45.840Z,99.99
2018-03-07T06:18:45.820Z,99.99
2018-03-07T06:19:45.792Z,99.99
2018-03-07T06:20:45.773Z,99.99
2018-03-07T06:21:45.754Z,99.99
2018-03-07T06:22:45.731Z,99.99
2018-03-07T06:23:45.714Z,99.99
2018-03-07T06:24:45.690Z,99.99
2018-03-07T06:25:45.667Z,99.99
2018-03-07T06:26:45.646Z,99.99
2018-03-07T06:27:45.623Z,99.99
2018-03-07T06:28:45.603Z,99.99
2018-03-07T06:29:45.584Z,99.99
2018-03-07T06:30:45.563Z,99.99
2018-03-07T06:31:45.541Z,99.99
2018-03-07T06:32:45.516Z,99.99
2018-03-07T06:33:45.498Z,99.99
2018-03-07T06:34:45.477Z,99.99
2018-03-07T06:35:45.456Z,99.99
2018-03-07T06:36:45.436Z,99.99
2018-03-07T06:37:45.413Z,99.99
2018-03-07T06:38:45.393Z,99.99
2018-03-07T06:39:45.371Z,99.99
2018-03-07T06:40:45.399Z,99.99
2018-03-07T06:41:45.337Z,99.99
2018-03-07T06:42:45.311Z,99.99
2018-03-07T06:43:45.282Z,99.99
2018-03-07T06:44:45.263Z,99.99
2018-03-07T06:45:45.248Z,99.99
2018-03-07T06:46:45.225Z,99.99
2018-03-07T06:47:45.198Z,99.99
2018-03-07T06:48:45.174Z,99.99
2018-03-07T06:49:45.158Z,99.99
2018-03-07T06:50:45.139Z,99.99
2018-03-07T06:51:45.114Z,99.99
2018-03-07T06:52:45.131Z,99.99
2018-03-07T06:53:45.074Z,99.99
2018-03-07T06:54:45.051Z,99.99
2018-03-07T06:55:45.027Z,99.99
2018-03-07T06:56:45.007Z,99.99
2018-03-07T06:57:44.988Z,99.99
2018-03-07T06:58:44.990Z,99.99
2018-03-07T06:59:44.948Z,99.99
2018-03-07T07:00:44.923Z,99.99
2018-03-07T07:01:44.899Z,99.99
2018-03-07T07:02:44.883Z,99.99
2018-03-07T07:03:44.856Z,99.99
2018-03-07T07:04:44.833Z,99.99
2018-03-07T07:05:44.818Z,99.99
2018-03-07T07:06:44.796Z,99.99
2018-03-07T07:07:44.773Z,99.99
2018-03-07T07:08:44.751Z,99.99
2018-03-07T07:09:44.733Z,99.99
2018-03-07T07:10:44.706Z,99.99
2018-03-07T07:11:44.689Z,99.99
2018-03-07T07:12:44.671Z,99.99
2018-03-07T07:13:44.644Z,99.99
2018-03-07T07:14:44.622Z,99.99
2018-03-07T07:15:44.606Z,99.99
2018-03-07T07:16:44.583Z,99.99
2018-03-07T07:17:44.558Z,99.99
2018-03-07T07:18:44.538Z,99.99
2018-03-07T07:19:44.519Z,99.99
2018-03-07T07:20:44.493Z,99.99
2018-03-07T07:21:44.471Z,99.99
2018-03-07T07:22:44.460Z,99.99
2018-03-07T07:23:44.426Z,99.99
2018-03-07T07:24:44.409Z,99.99
2018-03-07T07:25:44.393Z,99.99
2018-03-07T07:26:44.367Z,99.99
2018-03-07T07:27:44.347Z,99.99
2018-03-07T07:28:44.328Z,99.99
2018-03-07T07:29:44.309Z,99.99
2018-03-07T07:30:44.285Z,99.99
2018-03-07T07:31:44.257Z,99.99
2018-03-07T07:32:44.241Z,99.99
2018-03-07T07:33:44.219Z,99.99
2018-03-07T07:34:44.194Z,99.99
2018-03-07T07:35:44.172Z,99.99
2018-03-07T07:36:44.155Z,99.99
2018-03-07T07:37:44.129Z,99.99
2018-03-07T07:38:44.113Z,99.99
2018-03-07T07:39:44.088Z,99.99
2018-03-07T07:40:44.073Z,99.99
2018-03-07T07:41:44.049Z,99.99
2018-03-07T07:42:44.028Z,99.99
2018-03-07T07:43:44.006Z,99.99
2018-03-07T07:44:43.984Z,99.99
2018-03-07T07:45:43.961Z,99.99
2018-03-07T07:46:43.942Z,99.99
2018-03-07T07:47:43.917Z,99.99
2018-03-07T07:48:43.903Z,99.99
2018-03-07T07:49:43.886Z,99.99
2018-03-07T07:50:43.920Z,99.99
2018-03-07T07:51:43.838Z,99.99
2018-03-07T07:52:43.812Z,99.99
2018-03-07T07:53:43.796Z,99.99
2018-03-07T07:54:43.770Z,99.99
2018-03-07T07:55:43.752Z,99.99
2018-03-07T07:56:43.735Z,99.99
2018-03-07T07:57:43.730Z,99.99
2018-03-07T07:58:43.689Z,99.99
2018-03-07T07:59:43.665Z,99.99
2018-03-07T08:00:43.706Z,99.99
2018-03-07T08:01:43.625Z,99.99
2018-03-07T08:02:43.603Z,99.99
2018-03-07T08:03:43.581Z,99.99
2018-03-07T08:04:43.564Z,99.99
2018-03-07T08:05:43.546Z,99.99
2018-03-07T08:06:43.523Z,99.99
2018-03-07T08:07:43.502Z,99.99
2018-03-07T08:08:43.482Z,99.99
2018-03-07T08:09:43.460Z,99.99
2018-03-07T08:10:43.437Z,99.99
2018-03-07T08:11:43.424Z,99.99
2018-03-07T08:12:43.400Z,99.99
2018-03-07T08:13:43.378Z,99.99
2018-03-07T08:14:43.355Z,99.99
2018-03-07T08:15:43.333Z,99.99
2018-03-07T08:16:43.341Z,99.82
2018-03-07T08:17:43.298Z,99.44
2018-03-07T08:18:43.275Z,98.78
2018-03-07T08:19:43.254Z,98.83
2018-03-07T08:20:43.231Z,97.97
2018-03-07T08:21:43.214Z,98.35
2018-03-07T08:22:43.190Z,97.41
2018-03-07T08:23:43.167Z,98.26
2018-03-07T08:24:43.149Z,96.55
2018-03-07T08:25:43.130Z,95.79
2018-03-07T08:26:43.112Z,95.98
2018-03-07T08:27:43.107Z,94.37
2018-03-07T08:28:43.068Z,93.89
2018-03-07T08:29:43.056Z,93.99
2018-03-07T08:30:43.024Z,94.56
2018-03-07T08:31:43.008Z,95.03
2018-03-07T08:32:42.994Z,93.41
2018-03-07T08:33:42.965Z,92.94
2018-03-07T08:34:42.945Z,92.99
2018-03-07T08:35:42.956Z,92.66
2018-03-07T08:36:42.901Z,93.18
2018-03-07T08:37:42.886Z,92.13
2018-03-07T08:38:42.873Z,91.19
2018-03-07T08:39:42.845Z,90.23
2018-03-07T08:40:42.823Z,89.76
2018-03-07T08:41:42.799Z,89.95
2018-03-07T08:42:42.779Z,89.76
2018-03-07T08:43:42.758Z,89.95
2018-03-07T08:44:42.736Z,90.05
2018-03-07T08:45:42.724Z,89.38
2018-03-07T08:46:42.697Z,89.76
2018-03-07T08:47:42.677Z,89.57
2018-03-07T08:48:42.658Z,88.62
2018-03-07T08:49:42.642Z,89.19
2018-03-07T08:50:42.619Z,89.76
2018-03-07T08:51:42.600Z,88.90
2018-03-07T08:52:42.577Z,89.47
2018-03-07T08:53:42.561Z,89.09
2018-03-07T08:54:42.534Z,88.24
2018-03-07T08:55:42.513Z,87.76
2018-03-07T08:56:42.495Z,87.67
2018-03-07T08:57:42.477Z,87.01
2018-03-07T08:58:42.459Z,86.72
2018-03-07T08:59:42.440Z,87.01
2018-03-07T09:00:42.415Z,87.90
2018-03-07T09:01:42.391Z,86.43
2018-03-07T09:02:42.373Z,86.29
2018-03-07T09:03:42.352Z,86.47
2018-03-07T09:04:42.330Z,86.67
2018-03-07T09:05:42.308Z,86.86
2018-03-07T09:06:42.297Z,86.57
2018-03-07T09:07:42.268Z,84.95
2018-03-07T09:08:42.250Z,85.24
2018-03-07T09:09:42.228Z,85.15
2018-03-07T09:10:42.207Z,84.58
2018-03-07T09:11:42.186Z,84.67
2018-03-07T09:12:42.166Z,84.58
2018-03-07T09:13:42.147Z,84.67
2018-03-07T09:14:42.125Z,85.15
2018-03-07T09:15:42.107Z,85.24
2018-03-07T09:16:42.085Z,85.24
2018-03-07T09:17:42.069Z,85.15
2018-03-07T09:18:42.052Z,84.95
2018-03-07T09:19:42.023Z,84.77
2018-03-07T09:20:42.024Z,84.58
2018-03-07T09:21:41.985Z,84.29
2018-03-07T09:22:41.962Z,83.82
2018-03-07T09:23:41.946Z,82.96
2018-03-07T09:24:41.924Z,82.77
2018-03-07T09:25:41.908Z,82.24
2018-03-07T09:26:41.894Z,82.77
2018-03-07T09:27:41.860Z,82.62
2018-03-07T09:28:41.841Z,80.82
2018-03-07T09:29:41.824Z,80.63
2018-03-07T09:30:41.810Z,79.96
2018-03-07T09:31:41.780Z,79.11
2018-03-07T09:32:41.761Z,79.86
2018-03-07T09:33:41.745Z,80.34
2018-03-07T09:34:41.720Z,80.63
2018-03-07T09:35:41.706Z,79.39
2018-03-07T09:36:41.681Z,78.82
2018-03-07T09:37:41.666Z,79.68
2018-03-07T09:38:41.640Z,78.25
2018-03-07T09:39:41.621Z,78.82
2018-03-07T09:40:41.601Z,79.86
2018-03-07T09:41:41.582Z,80.15
2018-03-07T09:42:41.578Z,80.44
2018-03-07T09:43:41.538Z,81.20
2018-03-07T09:44:41.519Z,80.53
2018-03-07T09:45:41.498Z,79.30
2018-03-07T09:46:41.476Z,78.82
2018-03-07T09:47:41.459Z,77.97
2018-03-07T09:48:41.437Z,78.16
2018-03-07T09:49:41.417Z,77.97
2018-03-07T09:50:41.395Z,78.25
2018-03-07T09:51:41.379Z,77.20
2018-03-07T09:52:41.356Z,76.63
2018-03-07T09:53:41.352Z,76.92
2018-03-07T09:54:41.318Z,75.72
2018-03-07T09:55:41.294Z,76.48
2018-03-07T09:56:41.278Z,76.67
2018-03-07T09:57:41.259Z,74.58
2018-03-07T09:58:41.237Z,74.01
2018-03-07T09:59:41.221Z,74.10
2018-03-07T10:00:41.198Z,76.29
2018-03-07T10:01:41.185Z,76.67
2018-03-07T10:02:41.158Z,76.96
2018-03-07T10:03:41.138Z,76.76
2018-03-07T10:04:41.117Z,77.24
2018-03-07T10:05:41.097Z,76.76
2018-03-07T10:06:41.080Z,77.34
2018-03-07T10:07:41.058Z,77.24
2018-03-07T10:08:41.042Z,77.34
2018-03-07T10:09:41.018Z,77.53
2018-03-07T10:10:41.003Z,77.24
2018-03-07T10:11:40.978Z,76.67
2018-03-07T10:12:40.961Z,76.67
2018-03-07T10:13:40.938Z,76.39
2018-03-07T10:14:40.923Z,76.71
2018-03-07T10:15:40.898Z,76.42
2018-03-07T10:16:40.897Z,75.67
2018-03-07T10:17:40.862Z,75.19
2018-03-07T10:18:40.842Z,74.33
2018-03-07T10:19:40.825Z,74.52
2018-03-07T10:20:40.821Z,75.76
2018-03-07T10:21:40.787Z,75.95
2018-03-07T10:22:40.763Z,73.76
2018-03-07T10:23:40.752Z,74.14
2018-03-07T10:24:40.725Z,74.04
2018-03-07T10:25:40.711Z,74.24
2018-03-07T10:26:40.704Z,74.14
2018-03-07T10:27:40.670Z,73.76
2018-03-07T10:28:40.655Z,74.04
2018-03-07T10:29:40.629Z,74.33
2018-03-07T10:30:40.618Z,74.04
2018-03-07T10:31:40.591Z,74.14
2018-03-07T10:32:40.568Z,73.10
2018-03-07T10:33:40.550Z,72.33
2018-03-07T10:34:40.546Z,73.76
2018-03-07T10:35:40.517Z,73.03
2018-03-07T10:36:40.498Z,72.94
2018-03-07T10:37:40.477Z,72.94
2018-03-07T10:38:40.464Z,70.84
2018-03-07T10:39:40.441Z,69.79
2018-03-07T10:40:40.420Z,69.60
2018-03-07T10:41:40.396Z,70.18
2018-03-07T10:42:40.378Z,70.65
2018-03-07T10:43:40.358Z,70.56
2018-03-07T10:44:40.338Z,70.84
2018-03-07T10:45:40.323Z,70.08
2018-03-07T10:46:40.310Z,69.79
2018-03-07T10:47:40.289Z,68.94
2018-03-07T10:48:40.270Z,69.26
2018-03-07T10:49:40.249Z,70.02
2018-03-07T10:50:40.228Z,69.74
2018-03-07T10:51:40.211Z,69.93
2018-03-07T10:52:40.192Z,68.78
2018-03-07T10:53:40.174Z,69.26
2018-03-07T10:54:40.157Z,70.12
2018-03-07T10:55:40.130Z,68.98
2018-03-07T10:56:40.125Z,68.98
2018-03-07T10:57:40.102Z,68.21
2018-03-07T10:58:40.078Z,68.59
2018-03-07T10:59:40.057Z,67.83
2018-03-07T11:00:40.039Z,67.35
2018-03-07T11:01:40.020Z,66.40
2018-03-07T11:02:40.005Z,66.40
2018-03-07T11:03:39.983Z,65.77
2018-03-07T11:04:39.965Z,64.05
2018-03-07T11:05:39.947Z,63.96
2018-03-07T11:06:39.927Z,64.43
2018-03-07T11:07:39.911Z,66.24
2018-03-07T11:08:39.898Z,66.72
2018-03-07T11:09:39.868Z,66.59
2018-03-07T11:10:39.858Z,66.21
2018-03-07T11:11:39.837Z,66.24
2018-03-07T11:12:39.816Z,66.24
2018-03-07T11:13:39.793Z,65.96
2018-03-07T11:14:39.799Z,65.67
2018-03-07T11:15:39.760Z,65.00
2018-03-07T11:16:39.739Z,65.29
2018-03-07T11:17:39.720Z,65.29
2018-03-07T11:18:39.707Z,65.96
2018-03-07T11:19:39.687Z,66.59
2018-03-07T11:20:39.721Z,66.21
2018-03-07T11:21:39.649Z,66.21
2018-03-07T11:22:39.627Z,66.50
2018-03-07T11:23:39.609Z,67.35
2018-03-07T11:24:39.592Z,67.93
2018-03-07T11:25:39.577Z,67.93
2018-03-07T11:26:39.556Z,69.23
2018-03-07T11:27:39.544Z,68.75
2018-03-07T11:28:39.514Z,67.83
2018-03-07T11:29:39.499Z,68.02
2018-03-07T11:30:39.492Z,67.55
2018-03-07T11:31:39.468Z,67.48
2018-03-07T11:32:39.442Z,66.44
2018-03-07T11:33:39.427Z,65.86
2018-03-07T11:34:39.407Z,65.58
2018-03-07T11:35:39.387Z,65.96
2018-03-07T11:36:39.368Z,67.20
2018-03-07T11:37:39.349Z,67.68
2018-03-07T11:38:39.332Z,66.53
2018-03-07T11:39:39.317Z,66.72
2018-03-07T11:40:39.298Z,66.91
2018-03-07T11:41:39.279Z,66.44
2018-03-07T11:42:39.259Z,65.29
2018-03-07T11:43:39.236Z,65.00
2018-03-07T11:44:39.229Z,65.00
2018-03-07T11:45:39.205Z,65.39
2018-03-07T11:46:39.189Z,65.77
2018-03-07T11:47:39.173Z,67.10
2018-03-07T11:48:39.149Z,66.53
2018-03-07T11:49:39.131Z,65.20
2018-03-07T11:50:39.113Z,64.24
2018-03-07T11:51:39.096Z,64.85
2018-03-07T11:52:39.076Z,64.28
2018-03-07T11:53:39.056Z,64.94
2018-03-07T11:54:39.039Z,64.15
2018-03-07T11:55:39.018Z,62.43
2018-03-07T11:56:39.000Z,62.62
2018-03-07T11:57:38.981Z,64.91
2018-03-07T11:58:38.967Z,65.48
2018-03-07T11:59:38.954Z,65.10
2018-03-07T12:00:38.929Z,65.39
2018-03-07T12:01:38.911Z,65.67
2018-03-07T12:02:38.893Z,66.02
2018-03-07T12:03:38.876Z,65.64
2018-03-07T12:04:38.856Z,65.73
2018-03-07T12:05:38.838Z,65.16
2018-03-07T12:06:38.819Z,64.31
2018-03-07T12:07:38.804Z,64.50
2018-03-07T12:08:38.796Z,65.36
2018-03-07T12:09:38.765Z,65.64
2018-03-07T12:10:38.748Z,65.73
2018-03-07T12:11:38.731Z,65.83
2018-03-07T12:12:38.715Z,65.55
2018-03-07T12:13:38.694Z,65.73
2018-03-07T12:14:38.674Z,66.21
2018-03-07T12:15:38.656Z,66.69
2018-03-07T12:16:38.645Z,66.50
2018-03-07T12:17:38.619Z,66.69
2018-03-07T12:18:38.603Z,66.21
2018-03-07T12:19:38.585Z,66.21
2018-03-07T12:20:38.565Z,66.40
2018-03-07T12:21:38.556Z,65.86
2018-03-07T12:22:38.536Z,65.83
2018-03-07T12:23:38.512Z,66.21
2018-03-07T12:24:38.488Z,66.31
2018-03-07T12:25:38.471Z,66.97
2018-03-07T12:26:38.459Z,67.07
2018-03-07T12:27:38.432Z,67.93
2018-03-07T12:28:38.417Z,68.02
2018-03-07T12:29:38.405Z,67.74
2018-03-07T12:30:38.377Z,66.50
2018-03-07T12:31:38.361Z,66.88
2018-03-07T12:32:38.347Z,66.88
2018-03-07T12:33:38.321Z,66.40
2018-03-07T12:34:38.304Z,65.16
2018-03-07T12:35:38.288Z,65.26
2018-03-07T12:36:38.276Z,65.83
2018-03-07T12:37:38.248Z,66.31
2018-03-07T12:38:38.231Z,66.50
2018-03-07T12:39:38.214Z,66.50
2018-03-07T12:40:38.196Z,66.40
2018-03-07T12:41:38.173Z,66.69
2018-03-07T12:42:38.157Z,66.31
2018-03-07T12:43:38.136Z,66.40
2018-03-07T12:44:38.124Z,65.83
2018-03-07T12:45:38.105Z,65.45
2018-03-07T12:46:38.081Z,65.45
2018-03-07T12:47:38.117Z,65.16
2018-03-07T12:48:38.044Z,65.07
2018-03-07T12:49:38.027Z,65.64
2018-03-07T12:50:38.017Z,66.69
2018-03-07T12:51:37.993Z,66.69
2018-03-07T12:52:37.973Z,66.59